Time;durP1;ratioP1;P1;durP2;ratioP2;P2;SDS_P1;SDS_P2;PMS_P1;PMS_P2;Temp;Humidity;BMP_temperature;BMP_pressure;BME280_temperature;BME280_humidity;BME280_pressure;Samples;Min_cycle;Max_cycle;Signal;HPM_P1;HPM_P2
2023/09/01 00:01:01;;;;;;;0.77;0.50;;;18.70;89.70;;;;;;5009264;28;20025;-77
2023/09/01 00:03:26;;;;;;;2.25;0.88;;;18.60;78.20;;;;;;5009001;28;20025;-77
2023/09/01 00:05:52;;;;;;;4.03;0.82;;;;;;;;;;5009210;28;20021;-77
2023/09/01 00:08:19;;;;;;;3.03;0.90;;;;;;;;;;5009229;28;20132;-77
2023/09/01 00:10:46;;;;;;;1.48;0.70;;;;;;;;;;5009012;28;20026;-76
2023/09/01 00:13:12;;;;;;;2.03;0.88;;;;;;;;;;5009249;28;20030;-77
2023/09/01 00:15:38;;;;;;;1.73;0.80;;;;;;;;;;5008691;28;20084;-77
2023/09/01 00:18:05;;;;;;;1.60;0.77;;;18.00;77.20;;;;;;5008321;28;20049;-77
2023/09/01 00:20:34;;;;;;;1.48;0.50;;;;;;;;;;5008460;28;20399;-77
2023/09/01 00:23:00;;;;;;;0.90;0.65;;;;;;;;;;4998984;28;20027;-77
2023/09/01 00:25:26;;;;;;;1.27;0.70;;;;;;;;;;5008797;28;20016;-77
2023/09/01 00:27:52;;;;;;;1.27;0.60;;;;;;;;;;5009111;28;20495;-77
2023/09/01 00:30:18;;;;;;;3.10;0.90;;;;;;;;;;5008416;28;20034;-77
2023/09/01 00:32:44;;;;;;;0.60;0.40;;;;;;;;;;5008541;28;20065;-77
2023/09/01 00:35:10;;;;;;;0.75;0.50;;;17.60;81.10;;;;;;5008829;28;20103;-77
2023/09/01 00:37:37;;;;;;;1.83;1.35;;;17.60;80.60;;;;;;5009888;28;20030;-77
2023/09/01 00:40:04;;;;;;;1.85;0.80;;;;;;;;;;5008544;28;20026;-77
2023/09/01 00:42:30;;;;;;;1.45;0.63;;;;;;;;;;5008896;28;20026;-77
2023/09/01 00:44:56;;;;;;;2.88;0.77;;;;;;;;;;5008546;28;20466;-77
2023/09/01 00:47:22;;;;;;;1.65;0.70;;;;;;;;;;5006806;28;20419;-77
2023/09/01 00:49:49;;;;;;;0.60;0.60;;;;;;;;;;5008406;28;20038;-77
2023/09/01 00:52:15;;;;;;;1.70;1.02;;;;;;;;;;5008865;28;20080;-77
2023/09/01 00:54:41;;;;;;;2.00;0.68;;;;;;;;;;4996996;28;20022;-77
2023/09/01 00:57:07;;;;;;;0.98;0.77;;;;;;;;;;5009125;28;20087;-77
2023/09/01 00:59:34;;;;;;;4.85;1.52;;;17.50;88.50;;;;;;5008555;28;20026;-77
2023/09/01 01:02:00;;;;;;;0.60;0.50;;;;;;;;;;5008231;28;20041;-77
2023/09/01 01:04:26;;;;;;;0.70;0.40;;;;;;;;;;5008243;28;20503;-77
2023/09/01 01:07:19;;;;;;;1.42;0.43;;;17.00;90.20;;;;;;5008212;28;20075;-77
2023/09/01 01:09:57;;;;;;;1.10;0.50;;;;;;;;;;5008286;28;20530;-77
2023/09/01 01:12:26;;;;;;;2.80;0.90;;;;;;;;;;5008508;28;20092;-77
2023/09/01 01:14:53;;;;;;;6.82;1.20;;;16.90;90.90;;;;;;5010721;28;20025;-77
2023/09/01 01:17:20;;;;;;;0.75;0.68;;;;;;;;;;5012105;28;20053;-77
2023/09/01 01:20:13;;;;;;;1.48;0.70;;;17.10;91.80;;;;;;5012051;28;20037;-77
2023/09/01 01:22:43;;;;;;;1.30;0.60;;;17.10;91.00;;;;;;5011833;28;20026;-77
2023/09/01 01:25:12;;;;;;;4.57;0.93;;;17.00;91.60;;;;;;5012029;28;20026;-77
2023/09/01 01:27:42;;;;;;;4.97;0.63;;;16.90;92.40;;;;;;5012197;28;20046;-77
2023/09/01 01:30:09;;;;;;;1.67;0.50;;;17.00;93.40;;;;;;5011370;28;20522;-77
2023/09/01 01:32:36;;;;;;;0.60;0.50;;;;;;;;;;5011793;28;20033;-77
2023/09/01 01:35:28;;;;;;;1.55;0.68;;;16.80;92.50;;;;;;5011415;28;20018;-77
2023/09/01 01:38:12;;;;;;;1.13;0.47;;;16.80;93.50;;;;;;5011622;28;20534;-77
2023/09/01 01:40:38;;;;;;;1.95;0.98;;;;;;;;;;5011863;28;20123;-77
2023/09/01 01:43:07;;;;;;;2.00;0.68;;;;;;;;;;5011644;28;20018;-77
2023/09/01 01:45:37;;;;;;;2.17;0.60;;;16.90;94.20;;;;;;5011484;28;20292;-77
2023/09/01 01:48:03;;;;;;;2.22;0.73;;;16.40;92.60;;;;;;5011436;28;20052;-77
2023/09/01 01:50:29;;;;;;;0.95;0.43;;;;;;;;;;5011289;28;20517;-77
2023/09/01 01:52:55;;;;;;;1.77;0.60;;;;;;;;;;5011229;28;20562;-77
2023/09/01 01:55:21;;;;;;;0.57;0.40;;;;;;;;;;5016014;28;20390;-77
2023/09/01 01:57:46;;;;;;;2.22;1.35;;;17.20;98.70;;;;;;5012115;28;20022;-77
2023/09/01 02:00:14;;;;;;;0.75;0.50;;;16.80;99.90;;;;;;5011030;28;20057;-77
2023/09/01 02:02:41;;;;;;;2.05;0.55;;;;;;;;;;5009447;28;20037;-77
2023/09/01 02:05:08;;;;;;;0.82;0.60;;;16.60;94.90;;;;;;5011399;28;20076;-77
2023/09/01 02:07:34;;;;;;;0.57;0.57;;;;;;;;;;5011085;28;20037;-77
2023/09/01 02:10:00;;;;;;;1.25;0.40;;;;;;;;;;5010931;28;20069;-77
2023/09/01 02:12:26;;;;;;;0.68;0.65;;;;;;;;;;5010585;28;20455;-77
2023/09/01 02:14:53;;;;;;;0.40;0.40;;;;;;;;;;5008083;28;20057;-78
2023/09/01 02:17:19;;;;;;;0.47;0.25;;;16.10;99.90;;;;;;5010654;28;20049;-77
2023/09/01 02:19:45;;;;;;;1.48;0.80;;;;;;;;;;5010883;28;20458;-77
2023/09/01 02:22:11;;;;;;;0.40;0.40;;;;;;;;;;5010731;28;20105;-77
2023/09/01 02:24:37;;;;;;;0.60;0.60;;;;;;;;;;5010251;28;20036;-77
2023/09/01 02:27:04;;;;;;;1.92;0.70;;;;;;;;;;5010709;28;20034;-77
2023/09/01 02:29:31;;;;;;;1.17;0.70;;;;;;;;;;5010732;28;20034;-77
2023/09/01 02:31:57;;;;;;;0.60;0.60;;;;;;;;;;5010533;28;20026;-77
2023/09/01 02:34:23;;;;;;;1.67;1.00;;;;;;;;;;5010617;28;20272;-76
2023/09/01 02:36:49;;;;;;;1.23;0.60;;;15.90;99.90;;;;;;5010892;28;20026;-77
2023/09/01 02:39:16;;;;;;;0.73;0.45;;;;;;;;;;5010991;28;20446;-77
2023/09/01 02:41:42;;;;;;;0.75;0.60;;;;;;;;;;5010353;28;20511;-78
2023/09/01 02:44:09;;;;;;;0.43;0.40;;;;;;;;;;5010786;28;20029;-77
2023/09/01 02:46:35;;;;;;;0.57;0.57;;;;;;;;;;5010583;28;20383;-77
2023/09/01 02:49:01;;;;;;;0.57;0.52;;;;;;;;;;5010443;28;20091;-77
2023/09/01 02:51:27;;;;;;;1.20;0.63;;;;;;;;;;5009967;28;20026;-77
2023/09/01 02:53:53;;;;;;;2.40;0.57;;;;;;;;;;5010855;28;20037;-77
2023/09/01 02:56:19;;;;;;;1.60;0.50;;;;;;;;;;5009888;28;20484;-77
2023/09/01 02:58:45;;;;;;;1.98;0.68;;;;;;;;;;5010391;28;20022;-77
2023/09/01 03:01:11;;;;;;;0.93;0.50;;;;;;;;;;5016862;28;20026;-77
2023/09/01 03:03:38;;;;;;;3.03;0.50;;;15.50;99.30;;;;;;5010398;28;20036;-77
2023/09/01 03:06:08;;;;;;;0.98;0.50;;;;;;;;;;5010285;28;20034;-77
2023/09/01 03:08:37;;;;;;;0.60;0.50;;;15.40;99.40;;;;;;5010428;28;20040;-77
2023/09/01 03:11:03;;;;;;;0.50;0.40;;;;;;;;;;5009524;28;20037;-78
2023/09/01 03:13:29;;;;;;;2.05;0.95;;;;;;;;;;5010400;28;20084;-77
2023/09/01 03:15:55;;;;;;;1.65;0.80;;;;;;;;;;5010522;28;20446;-77
2023/09/01 03:18:21;;;;;;;3.58;0.85;;;;;;;;;;5009975;28;20484;-77
2023/09/01 03:20:48;;;;;;;0.88;0.60;;;;;;;;;;5010194;28;20055;-77
2023/09/01 03:23:14;;;;;;;0.75;0.40;;;;;;;;;;5009858;28;20049;-77
2023/09/01 03:25:40;;;;;;;0.50;0.40;;;;;;;;;;5009425;28;20084;-77
2023/09/01 03:28:06;;;;;;;1.13;0.50;;;15.20;99.90;;;;;;5009952;28;20033;-77
2023/09/01 03:30:32;;;;;;;4.70;0.50;;;;;;;;;;5008268;28;20485;-77
2023/09/01 03:32:58;;;;;;;1.10;0.60;;;;;;;;;;5009601;28;20030;-77
2023/09/01 03:35:24;;;;;;;0.77;0.55;;;;;;;;;;5009325;28;20088;-77
2023/09/01 03:37:50;;;;;;;2.67;1.17;;;;;;;;;;5009317;28;20022;-77
2023/09/01 03:40:16;;;;;;;2.35;0.50;;;;;;;;;;5009098;28;20063;-77
2023/09/01 03:42:42;;;;;;;1.58;0.60;;;;;;;;;;5009567;28;20026;-77
2023/09/01 03:45:09;;;;;;;1.15;0.60;;;;;;;;;;5008984;28;20591;-77
2023/09/01 03:47:34;;;;;;;1.92;0.60;;;;;;;;;;5009671;28;20033;-77
2023/09/01 03:50:00;;;;;;;1.73;0.40;;;;;;;;;;5009022;28;20038;-77
2023/09/01 03:52:26;;;;;;;3.50;0.82;;;;;;;;;;5009328;28;20502;-77
2023/09/01 03:54:52;;;;;;;1.50;0.50;;;;;;;;;;5008735;28;20045;-77
2023/09/01 03:57:18;;;;;;;1.20;0.50;;;;;;;;;;5009607;28;20217;-77
2023/09/01 03:59:44;;;;;;;1.55;0.85;;;;;;;;;;5010980;28;20143;-76
2023/09/01 04:02:10;;;;;;;0.65;0.60;;;;;;;;;;5009214;28;20022;-77
2023/09/01 04:04:37;;;;;;;0.30;0.30;;;;;;;;;;5009322;28;20473;-77
2023/09/01 04:07:03;;;;;;;1.25;0.43;;;;;;;;;;5009261;28;20120;-77
2023/09/01 04:09:29;;;;;;;0.70;0.70;;;;;;;;;;5008630;28;20042;-77
2023/09/01 04:11:56;;;;;;;0.77;0.63;;;;;;;;;;5008863;28;20092;-77
2023/09/01 04:14:21;;;;;;;0.40;0.40;;;14.70;99.90;;;;;;5009252;28;20384;-77
2023/09/01 04:16:47;;;;;;;2.25;0.63;;;;;;;;;;5008597;28;20053;-77
2023/09/01 04:19:13;;;;;;;0.40;0.40;;;;;;;;;;5008343;28;20065;-77
2023/09/01 04:21:39;;;;;;;2.85;0.70;;;;;;;;;;5008547;28;20030;-77
2023/09/01 04:24:06;;;;;;;0.60;0.50;;;;;;;;;;4998789;28;20555;-77
2023/09/01 04:26:32;;;;;;;1.70;0.55;;;;;;;;;;5008777;28;20032;-77
2023/09/01 04:28:58;;;;;;;1.65;0.80;;;;;;;;;;5008397;28;20041;-77
2023/09/01 04:31:28;;;;;;;0.73;0.50;;;14.50;99.90;;;;;;5007722;28;20030;-77
2023/09/01 04:33:54;;;;;;;1.98;0.77;;;;;;;;;;5008493;28;20022;-78
2023/09/01 04:36:21;;;;;;;1.13;0.52;;;;;;;;;;5008964;28;20030;-77
2023/09/01 04:38:47;;;;;;;0.93;0.60;;;;;;;;;;5008642;28;20084;-77
2023/09/01 04:41:13;;;;;;;0.50;0.50;;;;;;;;;;5008660;28;20034;-77
2023/09/01 04:43:39;;;;;;;3.65;0.77;;;;;;;;;;5008291;28;20076;-77
2023/09/01 04:46:05;;;;;;;1.08;0.80;;;;;;;;;;5008993;28;20022;-77
2023/09/01 04:48:32;;;;;;;7.65;0.82;;;;;;;;;;5011004;28;20030;-77
2023/09/01 04:51:02;;;;;;;1.20;0.60;;;;;;;;;;5014410;28;20037;-77
2023/09/01 04:53:28;;;;;;;0.90;0.45;;;;;;;;;;5000512;28;20034;-77
2023/09/01 04:55:55;;;;;;;1.65;0.88;;;;;;;;;;5012811;28;20392;-77
2023/09/01 04:58:21;;;;;;;6.18;1.00;;;;;;;;;;5012565;28;20117;-77
2023/09/01 05:00:47;;;;;;;0.55;0.55;;;;;;;;;;5012427;28;20474;-77
2023/09/01 05:03:13;;;;;;;1.00;0.90;;;;;;;;;;5012720;28;20033;-77
2023/09/01 05:05:39;;;;;;;1.60;0.73;;;14.40;99.90;;;;;;5012263;28;20033;-77
2023/09/01 05:08:05;;;;;;;7.28;0.63;;;14.10;99.90;;;;;;5012559;28;20022;-76
2023/09/01 05:10:31;;;;;;;0.90;0.60;;;;;;;;;;5012228;28;20403;-77
2023/09/01 05:12:57;;;;;;;0.82;0.57;;;;;;;;;;5012483;28;20026;-77
2023/09/01 05:15:23;;;;;;;1.27;0.57;;;;;;;;;;5012091;28;20422;-78
2023/09/01 05:17:49;;;;;;;0.77;0.50;;;;;;;;;;5012064;28;20594;-77
2023/09/01 05:20:15;;;;;;;0.88;0.73;;;;;;;;;;5012056;28;20101;-77
2023/09/01 05:22:41;;;;;;;1.00;0.57;;;;;;;;;;5012063;28;20116;-77
2023/09/01 05:25:08;;;;;;;0.95;0.80;;;14.20;99.90;;;;;;5011962;28;20174;-77
2023/09/01 05:27:34;;;;;;;3.42;1.00;;;;;;;;;;5012206;28;20576;-77
2023/09/01 05:30:00;;;;;;;1.30;0.75;;;;;;;;;;5011468;28;20073;-77
2023/09/01 05:32:26;;;;;;;6.65;0.70;;;;;;;;;;5006862;28;20083;-80
2023/09/01 05:34:52;;;;;;;2.70;1.13;;;;;;;;;;5010605;28;20116;-80
2023/09/01 05:37:18;;;;;;;1.35;1.15;;;;;;;;;;5010891;28;20030;-80
2023/09/01 05:39:44;;;;;;;2.88;1.45;;;;;;;;;;5009928;28;20113;-81
2023/09/01 05:42:10;;;;;;;1.80;1.20;;;;;;;;;;5010093;28;20506;-82
2023/09/01 05:44:37;;;;;;;1.23;0.90;;;14.70;99.90;;;;;;5009545;28;20098;-82
2023/09/01 05:47:06;;;;;;;1.10;0.85;;;14.90;99.90;;;;;;5009629;28;20026;-81
2023/09/01 05:49:32;;;;;;;0.77;0.60;;;;;;;;;;5010582;28;20113;-82
2023/09/01 05:51:58;;;;;;;1.58;1.02;;;;;;;;;;5010880;28;20402;-81
2023/09/01 05:54:24;;;;;;;2.47;1.17;;;;;;;;;;5010081;28;20104;-82
2023/09/01 05:56:50;;;;;;;0.63;0.63;;;14.80;99.90;;;;;;5011380;28;20513;-81
2023/09/01 05:59:16;;;;;;;1.50;0.68;;;;;;;;;;5009939;28;20022;-82
2023/09/01 06:01:42;;;;;;;1.77;0.80;;;;;;;;;;5009791;28;20029;-82
2023/09/01 06:04:09;;;;;;;0.45;0.45;;;;;;;;;;5010924;28;20034;-82
2023/09/01 06:06:35;;;;;;;0.90;0.60;;;15.90;99.90;;;;;;5010347;28;20034;-82
2023/09/01 06:09:04;;;;;;;5.57;0.63;;;;;;;;;;5010210;28;20066;-82
2023/09/01 06:11:30;;;;;;;5.40;1.00;;;;;;;;;;5010437;28;20037;-82
2023/09/01 06:13:56;;;;;;;1.20;0.98;;;;;;;;;;5010015;28;20076;-83
2023/09/01 06:16:22;;;;;;;2.22;0.68;;;;;;;;;;5009853;28;20033;-82
2023/09/01 06:18:48;;;;;;;1.70;0.80;;;;;;;;;;5009535;28;20044;-82
2023/09/01 06:21:17;;;;;;;0.73;0.50;;;;;;;;;;5006652;28;20105;-83
2023/09/01 06:23:46;;;;;;;1.60;0.80;;;25.40;73.00;;;;;;5005546;28;20080;-83
2023/09/01 06:26:12;;;;;;;2.05;0.80;;;;;;;;;;5009772;28;20664;-88
2023/09/01 06:28:40;;;;;;;3.63;1.00;;;27.60;52.60;;;;;;5009840;28;20073;-78
2023/09/01 06:31:07;;;;;;;2.97;1.20;;;;;;;;;;5004162;28;20329;-85
2023/09/01 06:33:33;;;;;;;3.08;1.48;;;;;;;;;;5010265;28;20026;-85
2023/09/01 06:35:59;;;;;;;1.40;1.10;;;;;;;;;;5012847;28;20091;-79
2023/09/01 06:38:25;;;;;;;2.23;0.90;;;;;;;;;;5002688;28;20029;-76
2023/09/01 06:40:51;;;;;;;2.87;0.90;;;;;;;;;;5013457;28;20034;-77
2023/09/01 06:43:17;;;;;;;1.33;0.87;;;;;;;;;;5009455;28;20038;-76
2023/09/01 06:45:43;;;;;;;2.80;0.83;;;;;;;;;;5007132;28;20465;-77
2023/09/01 06:48:09;;;;;;;1.10;1.00;;;;;;;;;;5006498;28;20037;-76
2023/09/01 06:50:36;;;;;;;1.58;0.90;;;37.80;39.00;;;;;;5005791;28;20065;-77
2023/09/01 06:53:02;;;;;;;3.13;0.88;;;;;;;;;;5007453;28;20706;-77
2023/09/01 06:55:28;;;;;;;0.98;0.75;;;;;;;;;;5019035;28;20113;-77
2023/09/01 06:57:54;;;;;;;0.90;0.70;;;;;;;;;;5008847;28;20113;-77
2023/09/01 07:00:20;;;;;;;1.30;0.57;;;42.40;37.30;;;;;;5002499;28;20033;-77
2023/09/01 07:02:46;;;;;;;1.08;0.50;;;;;;;;;;5009444;28;20053;-77
2023/09/01 07:05:12;;;;;;;0.50;0.40;;;45.10;31.50;;;;;;5010564;28;20021;-77
2023/09/01 07:07:38;;;;;;;2.35;0.50;;;;;;;;;;5009249;28;20033;-78
2023/09/01 07:10:04;;;;;;;1.55;0.60;;;46.70;27.20;;;;;;5004636;28;20487;-77
2023/09/01 07:12:29;;;;;;;;;;;46.90;27.30;;;;;;5006932;28;20056;-76
2023/09/01 07:14:57;;;;;;;1.52;0.50;;;;;;;;;;5009959;28;19913;-77
2023/09/01 07:17:23;;;;;;;0.75;0.75;;;;;;;;;;5006670;28;20073;-77
2023/09/01 07:19:49;;;;;;;1.52;0.50;;;;;;;;;;5009853;28;20045;-77
2023/09/01 07:22:15;;;;;;;0.82;0.40;;;;;;;;;;5008339;28;20026;-77
2023/09/01 07:24:41;;;;;;;0.82;0.43;;;;;;;;;;5012356;28;20030;-76
2023/09/01 07:27:06;;;;;;;0.85;0.50;;;51.20;27.40;;;;;;5008417;28;20056;-77
2023/09/01 07:29:33;;;;;;;2.28;0.40;;;51.50;24.30;;;;;;5010905;28;20049;-77
2023/09/01 07:32:03;;;;;;;1.98;0.50;;;;;;;;;;5005681;28;20022;-77
2023/09/01 07:34:29;;;;;;;0.70;0.38;;;;;;;;;;5012413;28;20125;-77
2023/09/01 07:36:55;;;;;;;1.00;0.57;;;;;;;;;;5011455;28;20049;-77
2023/09/01 07:39:21;;;;;;;0.90;0.43;;;;;;;;;;5006959;28;20030;-78
2023/09/01 07:41:47;;;;;;;1.77;0.40;;;;;;;;;;5004691;28;20021;-77
2023/09/01 07:44:16;;;;;;;2.45;1.00;;;;;;;;;;5010454;28;20021;-78
2023/09/01 07:46:45;;;;;;;2.53;0.50;;;56.10;22.60;;;;;;5014084;28;20453;-78
2023/09/01 07:49:11;;;;;;;2.30;0.85;;;56.40;22.00;;;;;;5010823;28;20051;-78
2023/09/01 07:51:38;;;;;;;0.85;0.50;;;;;;;;;;5003945;28;20104;-78
2023/09/01 07:54:04;;;;;;;7.90;1.00;;;57.30;21.70;;;;;;5001343;28;20116;-78
2023/09/01 07:56:32;;;;;;;0.85;0.80;;;57.30;24.80;;;;;;5009239;28;20088;-77
2023/09/01 07:58:58;;;;;;;3.22;0.88;;;57.70;21.90;;;;;;5008325;28;20060;-77
2023/09/01 08:01:24;;;;;;;1.23;0.70;;;;;;;;;;5006983;28;20542;-78
2023/09/01 08:03:50;;;;;;;2.20;0.80;;;;;;;;;;5006866;28;20040;-78
2023/09/01 08:06:16;;;;;;;1.25;0.90;;;;;;;;;;5006977;28;20034;-78
2023/09/01 08:08:42;;;;;;;7.60;1.63;;;;;;;;;;5007034;28;20022;-78
2023/09/01 08:11:07;;;;;;;1.13;1.00;;;58.40;21.00;;;;;;5000307;28;20524;-78
2023/09/01 08:13:33;;;;;;;2.03;1.63;;;;;;;;;;5012953;28;20021;-78
2023/09/01 08:15:59;;;;;;;0.88;0.88;;;58.00;20.00;;;;;;5003974;28;20022;-78
2023/09/01 08:18:25;;;;;;;1.27;1.17;;;58.20;21.50;;;;;;5012676;28;20542;-78
2023/09/01 08:20:51;;;;;;;1.02;0.90;;;;;;;;;;5005980;28;20034;-78
2023/09/01 08:23:21;;;;;;;1.85;1.10;;;;;;;;;;5004908;28;20029;-78
2023/09/01 08:25:47;;;;;;;1.23;0.80;;;57.30;22.80;;;;;;5010744;28;20033;-78
2023/09/01 08:28:13;;;;;;;1.00;0.90;;;;;;;;;;5015397;28;20034;-78
2023/09/01 08:30:39;;;;;;;1.63;1.52;;;58.10;20.60;;;;;;4998706;28;20407;-78
2023/09/01 08:33:05;;;;;;;2.50;0.98;;;;;;;;;;5004282;28;20034;-78
2023/09/01 08:35:31;;;;;;;1.40;1.30;;;;;;;;;;5005208;28;20030;-78
2023/09/01 08:37:57;;;;;;;1.10;1.00;;;;;;;;;;5004246;28;20029;-78
2023/09/01 08:40:23;;;;;;;1.45;1.25;;;;;;;;;;4998908;28;20632;-77
2023/09/01 08:42:49;;;;;;;3.95;1.10;;;60.00;19.90;;;;;;5004179;28;20030;-77
2023/09/01 08:45:17;;;;;;;3.83;1.30;;;60.40;22.70;;;;;;5004526;28;20399;-78
2023/09/01 08:47:45;;;;;;;1.58;1.20;;;60.80;19.40;;;;;;5004483;28;20084;-78
2023/09/01 08:50:14;;;;;;;1.60;1.50;;;61.30;19.00;;;;;;4995968;28;20491;-78
2023/09/01 08:52:42;;;;;;;1.58;1.45;;;60.90;22.30;;;;;;5003297;28;20050;-82
2023/09/01 08:55:09;;;;;;;1.20;1.20;;;;;;;;;;5004161;28;20026;-78
2023/09/01 08:57:37;;;;;;;1.65;1.55;;;;;;;;;;5004446;28;20036;-78
2023/09/01 09:00:04;;;;;;;1.42;1.25;;;;;;;;;;4998668;28;20028;-78
2023/09/01 09:02:30;;;;;;;1.20;1.10;;;60.80;22.80;;;;;;5004459;28;20475;-78
2023/09/01 09:04:56;;;;;;;1.98;1.23;;;;;;;;;;5013717;28;20104;-78
2023/09/01 09:07:22;;;;;;;5.30;1.30;;;61.00;22.50;;;;;;5005193;28;20037;-78
2023/09/01 09:09:56;;;;;;;1.48;1.38;;;61.40;22.50;;;;;;4997953;28;20046;-78
2023/09/01 09:12:23;;;;;;;1.42;1.30;;;61.40;18.70;;;;;;4998055;28;20053;-78
2023/09/01 09:14:52;;;;;;;1.30;1.30;;;60.80;19.00;;;;;;5004636;28;20066;-79
2023/09/01 09:17:22;;;;;;;1.63;1.20;;;57.60;17.20;;;;;;5008800;28;20050;-78
2023/09/01 09:19:54;;;;;;;1.30;1.20;;;60.00;18.80;;;;;;4996055;28;20037;-79
2023/09/01 09:22:21;;;;;;;1.27;1.20;;;60.50;21.40;;;;;;5004489;28;20018;-78
2023/09/01 09:24:47;;;;;;;1.10;1.10;;;59.50;22.40;;;;;;5006819;28;20037;-78
2023/09/01 09:27:18;;;;;;;1.30;1.20;;;59.30;19.00;;;;;;5006393;28;20403;-78
2023/09/01 09:29:45;;;;;;;1.30;1.00;;;59.20;19.20;;;;;;4997288;28;20125;-78
2023/09/01 09:32:24;;;;;;;1.25;1.15;;;58.40;22.50;;;;;;5005043;28;20045;-78
2023/09/01 09:35:07;;;;;;;2.50;0.82;;;57.10;19.00;;;;;;5012724;28;20026;-78
2023/09/01 09:37:34;;;;;;;2.58;0.60;;;57.60;19.00;;;;;;5014066;28;20029;-78
2023/09/01 09:40:16;;;;;;;0.60;0.52;;;57.60;19.10;;;;;;5008630;28;20038;-82
2023/09/01 09:42:45;;;;;;;0.85;0.85;;;57.50;21.80;;;;;;5016282;28;20034;-83
2023/09/01 09:45:32;;;;;;;0.85;0.60;;;57.60;23.00;;;;;;5013068;28;20648;-82
2023/09/01 09:48:07;;;;;;;0.85;0.70;;;58.80;19.10;;;;;;5016951;28;20518;-81
2023/09/01 09:50:34;;;;;;;1.33;0.60;;;57.80;21.50;;;;;;4999675;28;20045;-86
2023/09/01 09:53:04;;;;;;;0.93;0.50;;;57.50;19.00;;;;;;5015966;28;20026;-84
2023/09/01 09:55:50;;;;;;;0.90;0.70;;;58.30;19.20;;;;;;5008565;28;20597;-84
2023/09/01 09:58:17;;;;;;;1.23;0.60;;;57.90;23.20;;;;;;5012418;28;20014;-83
2023/09/01 10:00:55;;;;;;;0.80;0.50;;;57.50;23.10;;;;;;5011233;28;20033;-82
2023/09/01 10:03:24;;;;;;;0.80;0.60;;;56.80;19.00;;;;;;5012424;28;20053;-82
2023/09/01 10:05:51;;;;;;;0.82;0.52;;;56.20;19.30;;;;;;5017669;28;20079;-83
2023/09/01 10:08:20;;;;;;;0.50;0.50;;;55.10;22.20;;;;;;5019385;28;20034;-83
2023/09/01 10:10:46;;;;;;;1.20;0.50;;;;;;;;;;5004209;28;20038;-82
2023/09/01 10:13:12;;;;;;;0.60;0.40;;;55.70;23.40;;;;;;5023938;28;20091;-84
2023/09/01 10:15:39;;;;;;;0.60;0.40;;;;;;;;;;5021485;28;20034;-83
2023/09/01 10:18:08;;;;;;;1.05;0.50;;;55.90;19.20;;;;;;5026881;28;20084;-86
2023/09/01 10:20:37;;;;;;;0.43;0.32;;;55.10;19.20;;;;;;5005027;28;20029;-79
2023/09/01 10:23:10;;;;;;;0.57;0.50;;;55.00;19.50;;;;;;5007622;28;20072;-79
2023/09/01 10:25:36;;;;;;;0.65;0.35;;;55.30;23.90;;;;;;5013185;28;20117;-79
2023/09/01 10:28:04;;;;;;;0.38;0.30;;;55.20;23.60;;;;;;5018683;28;20033;-80
2023/09/01 10:30:36;;;;;;;0.30;0.20;;;55.40;19.40;;;;;;5002724;28;20038;-80
2023/09/01 10:33:22;;;;;;;1.70;0.40;;;55.70;19.20;;;;;;5007655;28;20030;-78
2023/09/01 10:35:51;;;;;;;0.90;0.50;;;56.60;23.50;;;;;;5005049;28;20053;-79
2023/09/01 10:38:34;;;;;;;0.82;0.40;;;56.80;19.60;;;;;;5014727;28;20053;-79
2023/09/01 10:41:00;;;;;;;1.70;0.45;;;57.30;21.90;;;;;;5005029;28;20101;-79
2023/09/01 10:43:38;;;;;;;1.00;0.40;;;56.10;19.00;;;;;;5007693;28;20487;-79
2023/09/01 10:46:13;;;;;;;0.70;0.40;;;56.30;19.30;;;;;;5007825;28;20030;-79
2023/09/01 10:48:51;;;;;;;0.20;0.20;;;56.20;23.30;;;;;;5010251;28;20802;-79
2023/09/01 10:51:24;;;;;;;1.08;0.40;;;56.00;19.20;;;;;;5003527;28;20816;-79
2023/09/01 10:53:56;;;;;;;0.50;0.40;;;57.00;19.30;;;;;;5016405;28;20022;-79
2023/09/01 10:56:23;;;;;;;1.13;0.45;;;57.40;19.20;;;;;;5012448;28;20519;-79
2023/09/01 10:58:50;;;;;;;0.20;0.20;;;57.20;18.80;;;;;;5015396;28;20018;-79
2023/09/01 11:01:30;;;;;;;0.50;0.40;;;56.50;19.00;;;;;;5001617;28;20123;-79
2023/09/01 11:04:15;;;;;;;0.57;0.38;;;56.40;23.20;;;;;;5010562;28;20045;-79
2023/09/01 11:07:00;;;;;;;0.98;0.40;;;57.30;19.30;;;;;;5014605;28;20506;-79
2023/09/01 11:09:34;;;;;;;0.30;0.28;;;56.00;18.90;;;;;;5007838;28;20160;-79
2023/09/01 11:12:04;;;;;;;1.58;0.57;;;56.70;19.00;;;;;;5016567;28;20033;-79
2023/09/01 11:14:34;;;;;;;0.60;0.40;;;57.40;23.00;;;;;;5008971;28;20069;-79
2023/09/01 11:17:01;;;;;;;0.85;0.40;;;;;;;;;;5012323;28;20052;-79
2023/09/01 11:19:27;;;;;;;0.63;0.50;;;;;;;;;;5009591;28;20033;-79
2023/09/01 11:21:53;;;;;;;0.85;0.65;;;;;;;;;;5010710;28;20032;-79
2023/09/01 11:24:22;;;;;;;0.68;0.22;;;56.40;18.80;;;;;;5012527;28;20032;-79
2023/09/01 11:26:49;;;;;;;2.00;0.28;;;55.90;18.80;;;;;;5006831;28;20503;-79
2023/09/01 11:29:15;;;;;;;1.85;1.15;;;;;;;;;;5006775;28;20095;-80
2023/09/01 11:31:44;;;;;;;1.20;0.65;;;54.70;19.00;;;;;;5006560;28;20042;-79
2023/09/01 11:34:10;;;;;;;2.53;0.40;;;53.70;19.80;;;;;;5008166;28;20028;-78
2023/09/01 11:36:46;;;;;;;0.90;0.43;;;54.10;20.30;;;;;;5010694;28;20033;-87
2023/09/01 11:39:12;;;;;;;0.43;0.30;;;;;;;;;;5002346;28;20037;-80
2023/09/01 11:41:39;;;;;;;0.80;0.68;;;54.30;19.30;;;;;;5002584;28;20041;-80
2023/09/01 11:44:05;;;;;;;0.80;0.30;;;;;;;;;;5010582;28;20048;-80
2023/09/01 11:46:37;;;;;;;0.60;0.20;;;53.90;19.40;;;;;;5009732;28;20141;-80
2023/09/01 11:49:04;;;;;;;0.55;0.30;;;52.80;19.40;;;;;;5012911;28;20042;-79
2023/09/01 11:51:42;;;;;;;0.43;0.20;;;52.10;19.80;;;;;;5005938;28;20034;-79
2023/09/01 11:54:08;;;;;;;1.10;0.50;;;;;;;;;;5010793;28;20516;-79
2023/09/01 11:56:34;;;;;;;2.38;0.22;;;;;;;;;;5018810;28;20030;-79
2023/09/01 11:59:01;;;;;;;0.43;0.28;;;;;;;;;;5017543;28;20124;-79
2023/09/01 12:01:38;;;;;;;0.70;0.20;;;48.10;27.10;;;;;;5007955;28;20501;-79
2023/09/01 12:04:08;;;;;;;1.40;0.30;;;45.90;21.10;;;;;;5013679;28;20034;-79
2023/09/01 12:06:40;;;;;;;0.50;0.20;;;43.50;21.00;;;;;;5005518;28;20049;-79
2023/09/01 12:09:12;;;;;;;0.85;0.40;;;44.30;22.10;;;;;;5009696;28;20033;-80
2023/09/01 12:12:00;;;;;;;0.40;0.30;;;;;;;;;;5004390;28;20041;-79
2023/09/01 12:14:30;;;;;;;0.70;0.28;;;41.70;23.00;;;;;;5011284;28;20029;-79
2023/09/01 12:16:56;;;;;;;2.33;0.55;;;;;;;;;;5004770;28;20045;-79
2023/09/01 12:19:23;;;;;;;3.38;0.47;;;39.80;23.90;;;;;;5010766;28;20048;-80
2023/09/01 12:21:49;;;;;;;2.75;0.38;;;;;;;;;;5011353;28;20484;-79
2023/09/01 12:24:15;;;;;;;1.25;0.30;;;;;;;;;;5008952;28;20040;-79
2023/09/01 12:26:41;;;;;;;0.75;0.28;;;;;;;;;;5008571;28;20040;-79
2023/09/01 12:29:07;;;;;;;0.35;0.15;;;;;;;;;;5009624;28;20037;-79
2023/09/01 12:31:33;;;;;;;2.42;0.20;;;;;;;;;;5006519;28;20037;-80
2023/09/01 12:33:59;;;;;;;0.10;0.10;;;35.90;29.70;;;;;;5011665;28;20079;-79
2023/09/01 12:36:25;;;;;;;0.33;0.20;;;;;;;;;;5007084;28;20802;-79
2023/09/01 12:38:51;;;;;;;1.80;0.40;;;;;;;;;;5009787;28;20045;-79
2023/09/01 12:41:17;;;;;;;2.45;0.75;;;;;;;;;;5001418;28;20025;-80
2023/09/01 12:43:43;;;;;;;2.55;0.55;;;34.90;27.10;;;;;;5006159;28;21000;-79
2023/09/01 12:46:09;;;;;;;;;;;34.90;27.20;;;;;;5007681;28;20080;-79
2023/09/01 12:48:35;;;;;;;5.63;1.13;;;;;;;;;;5015205;28;19987;-79
2023/09/01 12:51:01;;;;;;;1.40;0.60;;;;;;;;;;5004001;28;20064;-79
2023/09/01 12:53:27;;;;;;;0.95;0.50;;;;;;;;;;5010477;28;20038;-79
2023/09/01 12:55:54;;;;;;;0.68;0.45;;;;;;;;;;5012510;28;20080;-78
2023/09/01 12:58:20;;;;;;;0.88;0.45;;;32.70;31.10;;;;;;5019769;28;20017;-79
2023/09/01 13:00:46;;;;;;;1.20;0.47;;;;;;;;;;4999550;28;20033;-79
2023/09/01 13:03:12;;;;;;;2.53;0.40;;;;;;;;;;5017289;28;20037;-79
2023/09/01 13:05:38;;;;;;;1.33;0.40;;;;;;;;;;5010750;28;20400;-79
2023/09/01 13:08:04;;;;;;;2.67;0.40;;;;;;;;;;5010053;28;20119;-81
2023/09/01 13:10:30;;;;;;;1.17;0.55;;;;;;;;;;4995489;28;20034;-76
2023/09/01 13:12:56;;;;;;;0.73;0.30;;;;;;;;;;5015145;28;20033;-76
2023/09/01 13:15:22;;;;;;;1.10;0.45;;;;;;;;;;5007878;28;20026;-77
2023/09/01 13:17:48;;;;;;;2.58;0.85;;;;;;;;;;5008622;28;20065;-77
2023/09/01 13:20:14;;;;;;;0.63;0.30;;;;;;;;;;5001456;28;20464;-77
2023/09/01 13:22:41;;;;;;;2.07;0.93;;;31.30;46.80;;;;;;5017780;28;20638;-76
2023/09/01 13:25:07;;;;;;;1.55;0.63;;;;;;;;;;5009427;28;20347;-76
2023/09/01 13:27:34;;;;;;;0.65;0.50;;;;;;;;;;5015496;28;20033;-77
2023/09/01 13:30:00;;;;;;;0.55;0.40;;;31.00;34.50;;;;;;5003976;28;20522;-78
2023/09/01 13:32:26;;;;;;;1.15;0.40;;;;;;;;;;5022792;28;20029;-77
2023/09/01 13:34:52;;;;;;;5.33;0.70;;;;;;;;;;5013617;28;20030;-77
2023/09/01 13:37:18;;;;;;;1.00;0.67;;;;;;;;;;5007921;28;20026;-76
2023/09/01 13:39:44;;;;;;;2.17;0.60;;;30.60;44.70;;;;;;5002184;28;20593;-77
2023/09/01 13:42:10;;;;;;;6.73;1.40;;;;;;;;;;5011894;28;20025;-76
2023/09/01 13:44:36;;;;;;;0.95;0.63;;;;;;;;;;5008112;28;20026;-76
2023/09/01 13:47:02;;;;;;;1.63;0.60;;;;;;;;;;5015018;28;20132;-77
2023/09/01 13:49:28;;;;;;;1.10;0.77;;;;;;;;;;5012125;28;20052;-77
2023/09/01 13:51:54;;;;;;;0.68;0.30;;;;;;;;;;5005538;28;20253;-79
2023/09/01 13:54:20;;;;;;;0.90;0.40;;;;;;;;;;5015374;28;20036;-77
2023/09/01 13:56:46;;;;;;;0.95;0.40;;;;;;;;;;4999861;28;20022;-76
2023/09/01 13:59:12;;;;;;;0.68;0.20;;;;;;;;;;5005862;28;20040;-77